Time;durP1;ratioP1;P1;durP2;ratioP2;P2;SDS_P1;SDS_P2;PMS_P1;PMS_P2;Temp;Humidity;BMP_temperature;BMP_pressure;BME280_temperature;BME280_humidity;BME280_pressure;Samples;Min_cycle;Max_cycle;Signal;HPM_P1;HPM_P2
2022/07/14 00:02:17;;;;;;;1.90;0.90;;;;;;;18.82;94.98;101817.59;20959815;28;20137;-75
2022/07/14 00:12:19;;;;;;;3.25;1.15;;;;;;;18.83;94.70;101825.59;20969087;28;20044;-75
2022/07/14 00:22:21;;;;;;;1.45;0.85;;;;;;;18.86;94.56;101827.16;20978902;28;20066;-75
2022/07/14 00:32:28;;;;;;;2.05;0.95;;;;;;;18.84;94.35;101808.41;20895498;28;20510;-75
2022/07/14 00:42:46;;;;;;;3.33;0.93;;;;;;;18.78;94.43;101802.63;20894375;28;20501;-75
2022/07/14 00:52:49;;;;;;;1.73;0.93;;;;;;;18.83;94.06;101812.09;20921232;28;20045;-75
2022/07/14 01:02:52;;;;;;;2.03;0.80;;;;;;;18.83;93.89;101813.91;20958685;28;20490;-74
2022/07/14 01:12:59;;;;;;;1.83;0.80;;;;;;;18.81;93.59;101810.47;20892498;28;20091;-74
2022/07/14 01:23:01;;;;;;;2.03;0.90;;;;;;;18.81;93.56;101800.56;20950616;28;20052;-75
2022/07/14 01:33:04;;;;;;;2.35;0.80;;;;;;;18.77;93.10;101792.81;20973204;28;20036;-74
2022/07/14 01:43:06;;;;;;;2.35;1.00;;;;;;;18.79;93.24;101802.53;20965641;28;20052;-75
2022/07/14 01:53:08;;;;;;;1.70;0.80;;;;;;;18.78;92.76;101791.84;20945314;28;20044;-75
2022/07/14 02:03:11;;;;;;;2.22;1.02;;;;;;;18.77;92.63;101793.66;20969090;28;20504;-74
2022/07/14 02:13:13;;;;;;;2.85;1.05;;;;;;;18.76;92.45;101791.94;20969933;28;20097;-74
2022/07/14 02:23:15;;;;;;;2.22;0.95;;;;;;;18.76;92.16;101807.28;20951115;28;20045;-75
2022/07/14 02:33:17;;;;;;;1.13;0.70;;;;;;;18.75;92.04;101794.78;20965507;28;20048;-75
2022/07/14 02:43:19;;;;;;;3.17;1.25;;;;;;;18.55;91.91;101759.44;20956674;28;20048;-75
2022/07/14 02:53:20;;;;;;;2.53;0.80;;;;;;;18.73;91.72;101791.34;20966336;28;20054;-75
2022/07/14 03:03:22;;;;;;;1.63;0.70;;;;;;;18.62;91.15;101784.97;20963591;28;20068;-75
2022/07/14 03:13:24;;;;;;;1.05;0.68;;;;;;;18.63;91.09;101791.19;20852527;28;20089;-75
2022/07/14 03:23:26;;;;;;;1.50;0.77;;;;;;;18.68;90.91;101803.34;20823450;28;20124;-75
2022/07/14 03:33:29;;;;;;;0.82;0.50;;;;;;;18.68;90.45;101799.78;20801206;28;20065;-75
2022/07/14 03:43:32;;;;;;;2.28;1.08;;;;;;;18.66;90.27;101801.75;20779737;28;20066;-75
2022/07/14 03:53:36;;;;;;;2.63;1.00;;;;;;;18.55;90.15;101789.09;20898964;28;20041;-75
2022/07/14 04:03:38;;;;;;;1.48;0.65;;;;;;;18.18;89.91;101717.31;20865946;28;20049;-75
2022/07/14 04:13:41;;;;;;;1.45;0.75;;;;;;;18.65;89.55;101811.69;20844336;28;20049;-76
2022/07/14 04:23:43;;;;;;;3.90;0.70;;;;;;;18.65;89.38;101791.94;20850367;28;20060;-75
2022/07/14 04:33:46;;;;;;;5.63;1.20;;;;;;;18.67;91.71;101782.75;20838198;28;20068;-74
2022/07/14 04:43:48;;;;;;;3.72;0.90;;;;;;;18.72;91.82;101789.63;20844871;28;20540;-74
2022/07/14 04:53:50;;;;;;;2.97;0.88;;;;;;;18.58;90.20;101775.41;20851161;28;20143;-74
2022/07/14 05:04:12;;;;;;;1.88;0.75;;;;;;;18.73;89.05;101794.03;20754631;28;20079;-74
2022/07/14 05:14:15;;;;;;;2.92;0.98;;;;;;;18.71;88.11;101791.44;20771528;28;20132;-74
2022/07/14 05:24:17;;;;;;;2.83;0.80;;;;;;;18.78;87.97;101808.03;20772917;28;20430;-74
2022/07/14 05:34:19;;;;;;;1.95;0.70;;;;;;;18.79;87.94;101793.56;20768909;28;20501;-74
2022/07/14 05:44:21;;;;;;;3.45;0.98;;;;;;;18.79;87.92;101801.66;20852826;28;20052;-74
2022/07/14 05:54:23;;;;;;;2.20;0.88;;;;;;;18.78;87.62;101811.59;20848018;28;20056;-74
2022/07/14 06:04:25;;;;;;;2.80;0.90;;;;;;;18.79;86.73;101807.06;20761828;28;20143;-74
2022/07/14 06:14:27;;;;;;;2.50;0.82;;;;;;;18.80;87.25;101803.38;20862736;28;20498;-75
2022/07/14 06:24:29;;;;;;;2.53;0.90;;;;;;;18.62;87.34;101784.97;20804765;28;20590;-74
2022/07/14 06:34:31;;;;;;;7.93;1.10;;;;;;;18.83;88.64;101805.81;20777761;28;20669;-74
2022/07/14 06:44:54;;;;;;;2.47;0.80;;;;;;;18.83;88.76;101817.50;20778157;28;20049;-73
2022/07/14 06:55:03;;;;;;;2.10;0.80;;;;;;;18.80;89.22;101793.47;20762357;28;20128;-74
2022/07/14 07:15:26;;;;;;;1.35;0.60;;;;;;;18.84;87.46;101777.88;20763866;28;20649;-76
2022/07/14 07:25:28;;;;;;;3.03;0.82;;;;;;;18.85;87.27;101779.59;20776651;28;20064;-75
2022/07/14 07:35:29;;;;;;;1.60;1.08;;;;;;;18.88;87.08;101773.94;20773503;28;20041;-75
2022/07/14 07:45:39;;;;;;;1.75;0.65;;;;;;;18.94;86.42;101778.00;20811451;28;20041;-75
2022/07/14 07:55:41;;;;;;;1.27;0.50;;;;;;;18.93;86.42;101782.53;20771720;28;20050;-75
2022/07/14 08:05:43;;;;;;;1.30;0.60;;;;;;;18.97;86.07;101770.53;20766976;28;20136;-75
2022/07/14 08:15:47;;;;;;;0.65;0.63;;;;;;;19.05;85.69;101761.00;20792158;28;20041;-76
2022/07/14 08:25:49;;;;;;;2.60;0.60;;;;;;;19.08;85.50;101747.25;20852833;28;20069;-75
2022/07/14 08:35:50;;;;;;;1.67;0.50;;;;;;;19.12;85.53;101743.31;20792210;28;20417;-75
2022/07/14 08:45:52;;;;;;;1.73;0.60;;;;;;;19.12;84.90;101732.53;20793606;28;20051;-75
2022/07/14 08:55:54;;;;;;;1.40;0.52;;;;;;;19.16;84.95;101725.91;20860833;28;20050;-76
2022/07/14 09:05:56;;;;;;;1.23;0.47;;;;;;;19.17;84.47;101721.34;20863493;28;20095;-76
2022/07/14 09:16:14;;;;;;;;;;;;;;;19.14;84.51;101717.06;20876617;28;20045;-76
2022/07/14 09:26:18;;;;;;;0.63;0.43;;;;;;;19.10;84.94;101719.16;20891435;28;20439;-74
2022/07/14 09:36:26;;;;;;;1.27;0.50;;;;;;;18.93;85.65;101689.94;20892305;28;20409;-73
2022/07/14 09:46:51;;;;;;;1.30;0.40;;;;;;;19.05;86.18;101713.25;20884208;28;20044;-74
2022/07/14 09:56:52;;;;;;;1.83;0.67;;;;;;;19.02;86.67;101726.16;20892457;28;20130;-78
2022/07/14 10:06:57;;;;;;;1.15;0.43;;;;;;;18.99;86.79;101714.59;20882395;28;20068;-74
2022/07/14 10:16:59;;;;;;;1.20;0.47;;;;;;;18.98;87.26;101720.16;20856363;28;20139;-74
2022/07/14 10:27:01;;;;;;;0.55;0.30;;;;;;;18.87;87.44;101706.63;20779643;28;20128;-75
2022/07/14 10:37:17;;;;;;;1.48;0.50;;;;;;;18.94;87.53;101724.88;20773695;28;20132;-74
2022/07/14 10:47:20;;;;;;;1.02;0.47;;;;;;;18.94;87.43;101724.88;20808712;28;20064;-74
2022/07/14 10:57:21;;;;;;;1.08;0.50;;;;;;;18.93;87.53;101711.53;20829053;28;20061;-74
2022/07/14 11:07:50;;;;;;;2.85;0.40;;;;;;;18.95;86.23;101709.56;20778045;28;20057;-73
2022/07/14 11:17:52;;;;;;;1.40;0.35;;;;;;;19.04;84.52;101711.53;20773974;28;20122;-74
2022/07/14 11:27:53;;;;;;;0.60;0.30;;;;;;;19.01;83.54;101698.31;20791300;28;20052;-74
2022/07/14 11:38:20;;;;;;;1.17;0.40;;;;;;;19.18;82.96;101729.31;20794009;28;20053;-74
2022/07/14 11:48:27;;;;;;;1.38;0.40;;;;;;;19.21;83.76;101734.47;20790683;28;20079;-74
2022/07/14 11:58:30;;;;;;;2.50;0.60;;;;;;;19.18;83.78;101729.31;20863258;28;20574;-74
2022/07/14 12:08:34;;;;;;;0.82;0.28;;;;;;;19.17;84.13;101711.41;20868547;28;20524;-74
2022/07/14 12:18:35;;;;;;;0.65;0.30;;;;;;;18.73;84.38;101648.38;20892825;28;20152;-74
2022/07/14 12:28:37;;;;;;;1.67;0.50;;;;;;;19.14;84.77;101687.38;20894074;28;20067;-74
2022/07/14 12:38:39;;;;;;;0.45;0.30;;;;;;;19.11;84.99;101679.53;20881031;28;20048;-74
2022/07/14 12:48:50;;;;;;;0.30;0.30;;;;;;;19.11;84.99;101688.47;20888052;28;20110;-74
2022/07/14 12:58:52;;;;;;;0.38;0.25;;;;;;;19.13;85.28;101677.56;20890723;28;20053;-74
2022/07/14 13:08:54;;;;;;;1.00;0.50;;;;;;;19.11;85.33;101698.44;20900078;28;20045;-74
2022/07/14 13:19:17;;;;;;;1.75;0.40;;;;;;;19.08;85.42;101709.47;20881932;28;20060;-74
2022/07/14 13:29:18;;;;;;;0.98;0.30;;;;;;;19.06;85.51;101706.03;20874364;28;20057;-74
2022/07/14 13:39:21;;;;;;;0.50;0.30;;;;;;;19.05;85.53;101693.53;20863503;28;20045;-75
2022/07/14 13:49:28;;;;;;;2.38;0.40;;;;;;;19.03;85.43;101698.19;20875352;28;20057;-74
2022/07/14 13:59:29;;;;;;;0.77;0.40;;;;;;;18.83;85.64;101689.81;20897089;28;20546;-75
2022/07/14 14:09:31;;;;;;;0.63;0.28;;;;;;;18.96;85.61;101698.63;20878217;28;20052;-74
2022/07/14 14:19:32;;;;;;;0.63;0.40;;;;;;;18.96;85.59;101693.25;20877281;28;20052;-75
2022/07/14 14:29:34;;;;;;;1.10;0.40;;;;;;;18.91;85.51;101681.97;20878733;28;20053;-75
2022/07/14 14:39:36;;;;;;;0.98;0.40;;;;;;;18.91;85.59;101690.06;20865341;28;20060;-75
2022/07/14 14:49:51;;;;;;;1.23;0.47;;;;;;;18.92;85.66;101701.72;20869549;28;20045;-74
2022/07/14 14:59:52;;;;;;;1.20;0.40;;;;;;;18.92;85.44;101697.16;20843720;28;20821;-74
2022/07/14 15:09:55;;;;;;;0.60;0.30;;;;;;;19.00;84.49;101688.50;20880735;28;20140;-75
2022/07/14 15:19:57;;;;;;;2.20;0.45;;;;;;;18.97;83.94;101686.88;20873098;28;20555;-74
2022/07/14 15:29:58;;;;;;;1.48;0.40;;;;;;;19.05;83.49;101677.34;20848218;28;20056;-74
2022/07/14 15:50:21;;;;;;;0.70;0.40;;;;;;;19.13;83.65;101664.06;20846105;28;20467;-74
2022/07/14 16:00:22;;;;;;;0.95;0.50;;;;;;;19.24;83.19;101680.22;20851191;28;20099;-75
2022/07/14 16:10:24;;;;;;;1.83;0.52;;;;;;;19.21;83.34;101676.91;20846718;28;20140;-74
2022/07/14 16:20:25;;;;;;;1.90;0.50;;;;;;;19.18;83.72;101685.25;20769948;28;20065;-74
2022/07/14 16:30:27;;;;;;;0.90;0.40;;;;;;;19.01;83.67;101678.56;20769089;28;20061;-74
2022/07/14 16:40:29;;;;;;;1.13;0.40;;;;;;;19.10;84.12;101711.03;20836736;28;20127;-74
2022/07/14 16:50:30;;;;;;;0.30;0.30;;;;;;;19.08;84.51;101710.31;20765972;28;20575;-75
2022/07/14 17:00:32;;;;;;;1.63;0.57;;;;;;;19.07;84.64;101719.41;20792966;28;20546;-76
2022/07/14 17:10:34;;;;;;;1.17;0.57;;;;;;;18.93;85.20;101682.69;20868011;28;20041;-75
2022/07/14 17:20:35;;;;;;;1.58;0.40;;;;;;;19.08;85.31;101704.06;20865934;28;20060;-75
2022/07/14 17:30:37;;;;;;;1.60;0.65;;;;;;;19.06;85.55;101708.75;20862017;28;20561;-77
2022/07/14 17:40:39;;;;;;;0.88;0.47;;;;;;;19.04;86.12;101718.81;20866131;28;20644;-75
2022/07/14 17:50:41;;;;;;;0.90;0.50;;;;;;;19.02;87.24;101720.75;20869264;28;20059;-75
2022/07/14 18:00:42;;;;;;;1.52;0.50;;;;;;;18.99;87.43;101722.69;20908105;28;20110;-74
2022/07/14 18:10:44;;;;;;;1.73;0.60;;;;;;;18.95;87.65;101729.28;20912763;28;20045;-74
2022/07/14 18:20:46;;;;;;;1.35;0.90;;;;;;;18.93;87.78;101717.78;20894428;28;20506;-75
2022/07/14 18:30:47;;;;;;;1.50;0.63;;;;;;;18.92;87.75;101732.25;20946374;28;20049;-76
2022/07/14 18:40:49;;;;;;;0.70;0.60;;;;;;;18.78;87.95;101719.88;20882875;28;20091;-75
2022/07/14 18:50:50;;;;;;;1.85;0.82;;;;;;;18.89;87.92;101747.84;20882377;28;20045;-75
2022/07/14 19:00:52;;;;;;;4.10;0.93;;;;;;;18.81;87.73;101752.00;20869602;28;20049;-76
2022/07/14 19:10:53;;;;;;;1.83;0.70;;;;;;;18.91;87.81;101770.16;20800871;28;20133;-76
2022/07/14 19:20:55;;;;;;;1.70;0.70;;;;;;;18.90;87.64;101779.22;20832379;28;20444;-77
2022/07/14 19:30:57;;;;;;;2.90;1.00;;;;;;;18.89;87.12;101797.25;20963311;28;20133;-76
2022/07/14 19:40:59;;;;;;;1.35;0.70;;;;;;;18.89;86.41;101802.63;20879645;28;20055;-76
2022/07/14 19:51:00;;;;;;;4.22;0.90;;;;;;;18.88;86.41;101811.72;20918505;28;20097;-76
2022/07/14 20:01:02;;;;;;;2.13;0.80;;;;;;;18.88;86.16;101827.91;20962258;28;20049;-76
2022/07/14 20:11:21;;;;;;;2.35;0.93;;;;;;;18.87;85.85;101841.53;20962699;28;20044;-76
2022/07/14 20:21:23;;;;;;;1.23;0.80;;;;;;;18.87;85.60;101842.38;20949987;28;20048;-76
2022/07/14 20:41:45;;;;;;;1.60;0.80;;;;;;;18.83;85.58;101841.78;20975661;28;20067;-76
2022/07/14 20:51:46;;;;;;;1.50;0.80;;;;;;;18.72;85.37;101833.63;20977139;28;20166;-76
2022/07/14 21:01:48;;;;;;;1.92;0.80;;;;;;;18.83;85.69;101846.28;20975357;28;20080;-76
2022/07/14 21:11:50;;;;;;;2.58;0.98;;;;;;;18.82;85.53;101848.16;20975741;28;20134;-76
2022/07/14 21:21:52;;;;;;;1.48;0.70;;;;;;;18.82;85.40;101842.75;20925685;28;20106;-76
2022/07/14 21:31:53;;;;;;;3.72;1.20;;;;;;;18.80;85.07;101846.53;20972705;28;20041;-76
2022/07/14 21:41:55;;;;;;;1.65;0.70;;;;;;;16.92;85.11;101540.91;20971827;28;20044;-76
2022/07/14 21:51:57;;;;;;;1.90;0.70;;;;;;;18.80;85.32;101857.31;20973110;28;20049;-76
2022/07/14 22:01:59;;;;;;;2.10;0.70;;;;;;;18.38;85.50;101793.13;20950762;28;20044;-76
2022/07/14 22:12:01;;;;;;;1.33;0.55;;;;;;;18.56;85.77;101823.19;20887652;28;20045;-76
2022/07/14 22:22:03;;;;;;;1.27;0.60;;;;;;;18.77;85.52;101862.97;20952409;28;20047;-76
2022/07/14 22:32:13;;;;;;;1.58;0.93;;;;;;;18.73;85.72;101850.69;20967155;28;20145;-76
2022/07/14 22:42:14;;;;;;;1.77;0.60;;;;;;;18.76;85.82;101854.00;20966293;28;20404;-76
2022/07/14 22:52:16;;;;;;;1.35;0.70;;;;;;;18.59;85.52;101833.75;20967527;28;20635;-76
2022/07/14 23:02:19;;;;;;;1.25;0.70;;;;;;;18.74;85.52;101858.66;20964309;28;20048;-76
2022/07/14 23:12:28;;;;;;;1.52;0.70;;;;;;;18.73;85.73;101864.19;20960239;28;20048;-76
2022/07/14 23:22:30;;;;;;;1.00;0.50;;;;;;;18.72;85.58;101870.56;20956403;28;20047;-76
2022/07/14 23:32:32;;;;;;;1.50;0.50;;;;;;;18.72;85.66;101868.69;20965324;28;20127;-76
2022/07/14 23:42:33;;;;;;;1.75;0.70;;;;;;;18.70;85.36;101876.91;20962544;28;20055;-76
2022/07/14 23:52:35;;;;;;;0.88;0.60;;;;;;;18.70;85.25;101876.91;20964524;28;20093;-76
